Lapis Arrow — C6VH5 — position and weather

sailwx.info

Track history (hours):
 
Tides and Currents Weather Stations Pressure Air Temp Water Temp Dewpoint Dewpoint Depression Visibility Wind Speed Wind Dir Waves Ship Positions

Lapis Arrow

Last reported at 2016-Jul-07 18:33 UTC. Time now 2016-Aug-29 01:56 UTC.
Position N 31°50' E 028°50'.
Warning: this ship's position is 52 days out of date.

Length 176 m; draft 7.3 m.

Type: Cargo ship. MMSI: 308800800.

Date/timePositionNaut miles runAvg speedWind from/ knotsBaromVisibWave heightAir tempDewpointWater temp
2016-Jul-07 18:33N 31°50' E 028°50'77 3.3
2016-Jul-06 19:31N 31°50' E 030°21'2114.9
2016-Jul-06 18:07N 31°58' E 030°43'37 8.1
2016-Jul-06 13:32N 31°58' E 031°27'3 2.3
2016-Jul-06 12:16N 32°01' E 031°25'2 2.2
2016-Jul-06 11:30N 32°03' E 031°24'20 3.3
2016-Jul-06 05:33N 32°07' E 031°47'1515.3
2016-Jul-06 04:33N 32°07' E 032°05'6515.2
2016-Jul-06 00:15N 32°08' E 033°22'1115.1
2016-Jul-05 23:32N 32°08' E 033°35'1515.4
2016-Jul-05 22:34N 32°07' E 033°52'1515.5
2016-Jul-05 21:34N 32°01' E 034°09'1515.3
2016-Jul-05 20:33N 31°54' E 034°26'5 0.1
2016-Jul-03 23:09N 31°52' E 034°31'1 0.4
2016-Jul-03 19:07N 31°51' E 034°32'1 0.3
2016-Jul-03 16:23N 31°51' E 034°33'1 1.3
2016-Jul-03 15:34N 31°51' E 034°32'1 0.6
2016-Jul-03 14:33N 31°51' E 034°31'2 2.0
2016-Jul-03 13:33N 31°49' E 034°33'1 1.1
2016-Jul-03 12:34N 31°49' E 034°32'4 3.9
2016-Jul-03 11:33N 31°53' E 034°34'2 2.2
2016-Jul-03 10:32N 31°51' E 034°33'2 1.6
2016-Jul-03 09:33N 31°52' E 034°34'17 3.2
2016-Jul-03 04:18N 31°58' E 034°15'4215.4
2016-Jul-03 01:32N 32°19' E 033°32'1615.4
2016-Jul-03 00:30N 32°28' E 033°16'1715.7
2016-Jul-02 23:25N 32°38' E 032°60'1415.5
2016-Jul-02 22:30N 32°46' E 032°46'1815.4
2016-Jul-02 21:22N 32°56' E 032°29'1215.2
2016-Jul-02 20:33N 33°03' E 032°17'1515.3
2016-Jul-02 19:34N 33°12' E 032°02'1615.5
2016-Jul-02 18:33N 33°21' E 031°47'1615.4
2016-Jul-02 17:31N 33°30' E 031°31'2115.5
2016-Jul-02 16:09N 33°43' E 031°11'1416.0
2016-Jul-02 15:18N 33°50' E 030°57'1516.2
2016-Jul-02 14:23N 33°59' E 030°43'1316.3
2016-Jul-02 13:33N 34°07' E 030°29'29815.7
2016-Jul-01 18:34N 37°24' E 025°54'2215.7
2016-Jul-01 17:10N 37°44' E 025°44'12215.9
2016-Jul-01 09:31N 39°46' E 025°44'  
Track history (hours):
 
Tides and Currents Weather Stations Pressure Air Temp Water Temp Dewpoint Dewpoint Depression Visibility Wind Speed Wind Dir Waves Ship Positions

Lapis Arrow

Last reported at 2016-Jul-07 18:33 UTC. Time now 2016-Aug-29 01:56 UTC.
Position N 31°50' E 028°50'.
Warning: this ship's position is 52 days out of date.

Length 176 m; draft 7.3 m.

Type: Cargo ship. MMSI: 308800800.

Date/timePositionNaut miles runAvg speedWind from/ knotsBaromVisibWave heightAir tempDewpointWater temp
2016-Jul-07 18:33N 31°50' E 028°50'77 3.3
2016-Jul-06 19:31N 31°50' E 030°21'2114.9
2016-Jul-06 18:07N 31°58' E 030°43'37 8.1
2016-Jul-06 13:32N 31°58' E 031°27'3 2.3
2016-Jul-06 12:16N 32°01' E 031°25'2 2.2
2016-Jul-06 11:30N 32°03' E 031°24'20 3.3
2016-Jul-06 05:33N 32°07' E 031°47'1515.3
2016-Jul-06 04:33N 32°07' E 032°05'6515.2
2016-Jul-06 00:15N 32°08' E 033°22'1115.1
2016-Jul-05 23:32N 32°08' E 033°35'1515.4
2016-Jul-05 22:34N 32°07' E 033°52'1515.5
2016-Jul-05 21:34N 32°01' E 034°09'1515.3
2016-Jul-05 20:33N 31°54' E 034°26'5 0.1
2016-Jul-03 23:09N 31°52' E 034°31'1 0.4
2016-Jul-03 19:07N 31°51' E 034°32'1 0.3
2016-Jul-03 16:23N 31°51' E 034°33'1 1.3
2016-Jul-03 15:34N 31°51' E 034°32'1 0.6
2016-Jul-03 14:33N 31°51' E 034°31'2 2.0
2016-Jul-03 13:33N 31°49' E 034°33'1 1.1
2016-Jul-03 12:34N 31°49' E 034°32'4 3.9
2016-Jul-03 11:33N 31°53' E 034°34'2 2.2
2016-Jul-03 10:32N 31°51' E 034°33'2 1.6
2016-Jul-03 09:33N 31°52' E 034°34'17 3.2
2016-Jul-03 04:18N 31°58' E 034°15'4215.4
2016-Jul-03 01:32N 32°19' E 033°32'1615.4
2016-Jul-03 00:30N 32°28' E 033°16'1715.7
2016-Jul-02 23:25N 32°38' E 032°60'1415.5
2016-Jul-02 22:30N 32°46' E 032°46'1815.4
2016-Jul-02 21:22N 32°56' E 032°29'1215.2
2016-Jul-02 20:33N 33°03' E 032°17'1515.3
2016-Jul-02 19:34N 33°12' E 032°02'1615.5
2016-Jul-02 18:33N 33°21' E 031°47'1615.4
2016-Jul-02 17:31N 33°30' E 031°31'2115.5
2016-Jul-02 16:09N 33°43' E 031°11'1416.0
2016-Jul-02 15:18N 33°50' E 030°57'1516.2
2016-Jul-02 14:23N 33°59' E 030°43'1316.3
2016-Jul-02 13:33N 34°07' E 030°29'29815.7
2016-Jul-01 18:34N 37°24' E 025°54'2215.7
2016-Jul-01 17:10N 37°44' E 025°44'12215.9
2016-Jul-01 09:31N 39°46' E 025°44'  

Dump ship's entire track history